createdAt,value
2022-08-24T00:02:32.222Z,67.8
2022-08-24T00:08:23.519Z,67.4
2022-08-24T00:14:15.165Z,66.5
2022-08-24T00:20:07.571Z,68
2022-08-24T00:25:58.924Z,66.7
2022-08-24T00:31:52.938Z,66
2022-08-24T00:37:44.688Z,67.1
2022-08-24T00:43:37.066Z,66.7
2022-08-24T00:49:27.263Z,67.4
2022-08-24T00:55:20.509Z,67.5
2022-08-24T01:01:12.167Z,67.2
2022-08-24T01:07:04.719Z,67.5
2022-08-24T01:13:03.362Z,68.1
2022-08-24T01:18:53.085Z,67.7
2022-08-24T01:24:48.943Z,68
2022-08-24T01:30:40.902Z,67.7
2022-08-24T01:36:32.473Z,68.1
2022-08-24T01:42:25.388Z,69.5
2022-08-24T01:48:26.050Z,72
2022-08-24T01:54:16.498Z,70.1
2022-08-24T02:00:07.453Z,70.2
2022-08-24T02:05:59.910Z,70.4
2022-08-24T02:11:53.267Z,71.9
2022-08-24T02:17:46.178Z,71
2022-08-24T02:23:37.425Z,70.9
2022-08-24T02:29:29.169Z,69.8
2022-08-24T02:35:21.615Z,70.3
2022-08-24T02:41:12.732Z,71.1
2022-08-24T02:47:04.684Z,70.8
2022-08-24T02:52:58.186Z,71.9
2022-08-24T02:58:54.637Z,72.3
2022-08-24T03:04:51.011Z,72
2022-08-24T03:10:42.705Z,72.1
2022-08-24T03:16:33.710Z,72.6
2022-08-24T03:22:23.798Z,72.2
2022-08-24T03:28:16.982Z,71.7
2022-08-24T03:34:15.012Z,72.5
2022-08-24T03:40:04.506Z,73.2
2022-08-24T03:46:10.039Z,74.4
2022-08-24T03:52:01.227Z,74.2
2022-08-24T03:57:51.219Z,74
2022-08-24T04:03:47.312Z,74.8
2022-08-24T04:09:38.101Z,72.8
2022-08-24T04:15:30.592Z,73.8
2022-08-24T04:21:25.053Z,74.6
2022-08-24T04:27:17.019Z,75.3
2022-08-24T04:33:07.307Z,74.2
2022-08-24T04:39:00.347Z,75.3
2022-08-24T04:44:51.587Z,74.9
2022-08-24T04:50:45.287Z,76.6
2022-08-24T04:56:36.230Z,74.6
2022-08-24T05:02:27.878Z,74.7
2022-08-24T05:08:29.958Z,75.1
2022-08-24T05:14:28.890Z,75.5
2022-08-24T05:20:22.279Z,76.1
2022-08-24T05:26:14.805Z,73.9
2022-08-24T05:32:08.049Z,72.5
2022-08-24T05:37:58.729Z,67.1
2022-08-24T05:43:51.655Z,61.9
2022-08-24T05:49:44.258Z,63.7
2022-08-24T05:55:44.963Z,58.5
2022-08-24T06:01:40.301Z,62.3
2022-08-24T06:07:37.065Z,66.3
2022-08-24T06:13:28.195Z,68.3
2022-08-24T06:19:19.121Z,68.8
2022-08-24T06:25:10.739Z,70.9
2022-08-24T06:31:02.379Z,69.4
2022-08-24T06:36:55.528Z,68.5
2022-08-24T06:42:48.718Z,67.2
2022-08-24T06:48:39.888Z,67.3
2022-08-24T06:54:31.297Z,65.8
2022-08-24T07:00:23.138Z,63.4
2022-08-24T07:06:15.063Z,63.9
2022-08-24T07:12:07.270Z,60.5
2022-08-24T07:17:58.575Z,59.4
2022-08-24T07:23:48.522Z,58.7
2022-08-24T07:30:26.274Z,58.3
2022-08-24T07:36:24.306Z,56.1
2022-08-24T07:42:32.353Z,54.2
2022-08-24T07:48:21.566Z,53.5
2022-08-24T07:54:15.129Z,52.4
2022-08-24T08:00:08.312Z,51.6
2022-08-24T08:05:59.666Z,50.5
2022-08-24T08:11:50.705Z,49.1
2022-08-24T08:17:42.474Z,47.6
2022-08-24T08:23:44.975Z,47.1
2022-08-24T08:29:40.206Z,47.3
2022-08-24T08:35:28.646Z,47.3
2022-08-24T08:41:27.487Z,46.9
2022-08-24T08:47:21.974Z,47.9
2022-08-24T08:53:12.981Z,45.6
2022-08-24T08:59:06.007Z,45.5
2022-08-24T09:05:02.313Z,46.2
2022-08-24T09:10:54.608Z,46
2022-08-24T09:16:47.928Z,46.4
2022-08-24T09:22:40.979Z,45.3
2022-08-24T09:28:33.434Z,45.7
2022-08-24T09:34:26.587Z,45
2022-08-24T09:40:16.793Z,44.4
2022-08-24T09:46:08.091Z,44.3
2022-08-24T09:52:01.113Z,43
2022-08-24T09:58:06.832Z,43.9
2022-08-24T10:03:56.239Z,43.5
2022-08-24T10:09:45.490Z,42.3
2022-08-24T10:15:34.745Z,41.8
2022-08-24T10:21:23.933Z,41
2022-08-24T10:27:13.040Z,39.8
2022-08-24T10:33:04.490Z,39.9
2022-08-24T10:38:55.227Z,40.4
2022-08-24T10:44:48.670Z,40.6
2022-08-24T10:50:41.998Z,39.6
2022-08-24T10:56:34.267Z,39.3
2022-08-24T11:02:27.258Z,38.8
2022-08-24T11:08:20.018Z,37
2022-08-24T11:14:11.405Z,37.2
2022-08-24T11:20:04.457Z,36.2
2022-08-24T11:25:56.072Z,35.7
2022-08-24T11:31:49.356Z,33.4
2022-08-24T11:37:40.638Z,33.2
2022-08-24T11:43:34.850Z,34.3
2022-08-24T11:49:29.053Z,34.3
2022-08-24T11:55:25.697Z,33.8
2022-08-24T12:01:46.223Z,32.7
2022-08-24T12:07:51.845Z,32.4
2022-08-24T12:13:52.702Z,31.4
2022-08-24T12:19:53.678Z,33.1
2022-08-24T12:25:44.928Z,31.9
2022-08-24T12:31:45.079Z,31.1
2022-08-24T12:37:36.258Z,32.6
2022-08-24T12:43:27.485Z,31
2022-08-24T12:49:19.299Z,32.5
2022-08-24T12:55:11.326Z,32.4
2022-08-24T13:01:07.498Z,32.4
2022-08-24T13:07:12.235Z,31.4
2022-08-24T13:13:02.831Z,31.3
2022-08-24T13:18:54.731Z,31.1
2022-08-24T13:24:46.784Z,30.9
2022-08-24T13:30:44.489Z,30.2
2022-08-24T13:36:44.861Z,29.4
2022-08-24T13:42:36.810Z,30.8
2022-08-24T13:48:28.441Z,29.7
2022-08-24T13:54:23.975Z,30.2
2022-08-24T14:00:21.211Z,29.7
2022-08-24T14:06:11.443Z,30.4
2022-08-24T14:12:10.685Z,28.9
2022-08-24T14:18:03.726Z,29.4
2022-08-24T14:23:57.767Z,29.2
2022-08-24T14:29:49.151Z,28.7
2022-08-24T14:35:41.395Z,29.1
2022-08-24T14:41:34.633Z,27.9
2022-08-24T14:47:25.713Z,28
2022-08-24T14:53:19.084Z,27.8
2022-08-24T14:59:09.960Z,28.8
2022-08-24T15:05:01.426Z,28.1
2022-08-24T15:10:53.050Z,29.5
2022-08-24T15:16:44.454Z,29.7
2022-08-24T16:24:16.844Z,29.4
2022-08-24T16:30:32.786Z,29.1
2022-08-24T17:46:39.183Z,30.9
2022-08-24T17:52:28.371Z,31.6
2022-08-24T17:58:20.323Z,32.1
2022-08-24T18:04:12.643Z,32.9
2022-08-24T18:10:06.065Z,33.7
2022-08-24T18:15:56.237Z,34.2
2022-08-24T18:21:48.584Z,34.3
2022-08-24T18:27:39.444Z,35
2022-08-24T18:33:32.924Z,36.2
2022-08-24T18:39:26.310Z,36.9
2022-08-24T18:45:20.652Z,37.8
2022-08-24T18:51:14.101Z,39.3
2022-08-24T18:57:28.924Z,40.9
2022-08-24T19:03:19.671Z,41.3
2022-08-24T19:09:11.823Z,41.5
2022-08-24T19:15:04.345Z,41.7
2022-08-24T19:21:25.348Z,43
2022-08-24T19:27:15.397Z,43.7
2022-08-24T19:33:15.838Z,44.3
2022-08-24T19:39:05.302Z,43.7
2022-08-24T19:45:01.683Z,44.2
2022-08-24T19:50:53.977Z,45.1
2022-08-24T19:56:44.477Z,46.2
2022-08-24T20:02:35.835Z,46.1
2022-08-24T20:08:25.430Z,46.6
2022-08-24T20:14:15.303Z,46.9
2022-08-24T20:20:06.475Z,48.4
2022-08-24T20:25:59.334Z,48
2022-08-24T20:31:52.413Z,48.4
2022-08-24T20:37:46.677Z,48.5
2022-08-24T20:43:37.100Z,50.1
2022-08-24T20:49:30.410Z,50.4
2022-08-24T20:55:21.080Z,50.7
2022-08-24T21:01:12.252Z,50.6
2022-08-24T21:07:02.367Z,51.5
2022-08-24T21:12:54.048Z,51.1
2022-08-24T21:18:45.144Z,50.9
2022-08-24T21:24:38.098Z,52.1
2022-08-24T21:30:26.212Z,50.2
2022-08-24T21:36:23.281Z,49.6
2022-08-24T21:42:19.059Z,49.3
2022-08-24T21:48:12.722Z,51.3
2022-08-24T21:54:06.986Z,51.7
2022-08-24T21:59:56.748Z,49.9
2022-08-24T22:05:51.074Z,49
2022-08-24T22:11:42.402Z,49.1
2022-08-24T22:17:32.538Z,49.4
2022-08-24T22:23:23.249Z,48.4
2022-08-24T22:29:13.917Z,48.6
2022-08-24T22:35:05.250Z,48.6
2022-08-24T22:40:58.037Z,47.7
2022-08-24T22:46:51.377Z,49.4
2022-08-24T22:52:41.519Z,48.4
2022-08-24T22:58:33.417Z,49.4
2022-08-24T23:04:24.773Z,48.5
2022-08-24T23:10:18.024Z,49.2
2022-08-24T23:16:08.803Z,48.2
2022-08-24T23:22:02.804Z,49
2022-08-24T23:27:55.902Z,48.8
2022-08-24T23:33:47.520Z,48.7
2022-08-24T23:39:37.134Z,47.9
2022-08-24T23:45:31.605Z,47.1
2022-08-24T23:53:44.828Z,47
2022-08-24T23:59:41.651Z,47.3
